Aviation Digital Data Service (ADDS)

Output produced by METARs form (0100 UTC 24 May 2022)
found at http://www.aviationweather.gov/metar/data/
 
GABS 240030Z 22004KT 190V260 9999 FEW030 29/20 Q1013 NOSIG
TAF GABS 232300Z 2400/2506 18008KT 9999 FEW030 
     PROB40 
     TEMPO 2416/2420 VRB20G35KT TSRA SCT030 FEW033CB
       
TAF GAGO 232300Z 2400/2424 22006G18KT 8000 NSC 
     PROB40 
     TEMPO 2406/2412 4000 DU
       
GAMB 240000Z 16012KT CAVOK 30/19 Q1012
GANR 240000Z 20006KT CAVOK 34/17 Q1011